<?xml version="1.0" encoding="UTF-8" standalone="no" ?>
<gpx xmlns="http://www.topografix.com/GPX/1/1" xmlns:xsi="http://www.w3.org/2001/XMLSchema-instance" xsi:schemaLocation="http://www.topografix.com/GPX/1/1 http://www.topografix.com/GPX/1/1/gpx.xsd" version="1.1" creator="VisuGPX - https://www.visugpx.com">
  <metadata>
    <name>Tour de France 2019</name>
    <desc><![CDATA[4272km en 2 mois en tandem avec notre petit chien dans le panier avant]]></desc>
  </metadata>
  <trk>
    <name><![CDATA[Tracé 20191115-075959]]></name>
    <trkseg>
      <trkpt lat="49.41893" lon="0.23181">
        <ele>40.557</ele>
        <time>2019-11-15T07:00:11Z</time>
      </trkpt>
      <trkpt lat="49.41895" lon="0.23144">
        <ele>31.439</ele>
        <time>2019-11-15T07:00:53Z</time>
      </trkpt>
      <trkpt lat="49.41898" lon="0.23174">
        <ele>26.217</ele>
        <time>2019-11-15T07:01:32Z</time>
      </trkpt>
      <trkpt lat="49.419" lon="0.23177">
        <ele>35.375</ele>
        <time>2019-11-15T07:12:50Z</time>
      </trkpt>
      <trkpt lat="49.41887" lon="0.23183">
        <ele>30.203</ele>
        <time>2019-11-15T07:15:27Z</time>
      </trkpt>
      <trkpt lat="49.41947" lon="0.2325">
        <ele>29.245</ele>
        <time>2019-11-15T07:18:03Z</time>
      </trkpt>
      <trkpt lat="49.41894" lon="0.23366">
        <ele>24.635</ele>
        <time>2019-11-15T07:18:33Z</time>
      </trkpt>
      <trkpt lat="49.41845" lon="0.23567">
        <ele>15.291</ele>
        <time>2019-11-15T07:19:06Z</time>
      </trkpt>
      <trkpt lat="49.41851" lon="0.23808">
        <ele>5.989</ele>
        <time>2019-11-15T07:19:39Z</time>
      </trkpt>
      <trkpt lat="49.41777" lon="0.24007">
        <ele>8</ele>
        <time>2019-11-15T07:20:09Z</time>
      </trkpt>
      <trkpt lat="49.41883" lon="0.24069">
        <ele>7.179</ele>
        <time>2019-11-15T07:20:42Z</time>
      </trkpt>
      <trkpt lat="49.41934" lon="0.24231">
        <ele>12.275</ele>
        <time>2019-11-15T07:21:15Z</time>
      </trkpt>
      <trkpt lat="49.4187" lon="0.24399">
        <ele>6.328</ele>
        <time>2019-11-15T07:21:45Z</time>
      </trkpt>
      <trkpt lat="49.41821" lon="0.24603">
        <ele>4.549</ele>
        <time>2019-11-15T07:22:18Z</time>
      </trkpt>
      <trkpt lat="49.41796" lon="0.24845">
        <ele>6.136</ele>
        <time>2019-11-15T07:22:51Z</time>
      </trkpt>
      <trkpt lat="49.41771" lon="0.25049">
        <ele>5.016</ele>
        <time>2019-11-15T07:23:21Z</time>
      </trkpt>
      <trkpt lat="49.41821" lon="0.25202">
        <ele>15.061</ele>
        <time>2019-11-15T07:23:54Z</time>
      </trkpt>
      <trkpt lat="49.4198" lon="0.25236">
        <ele>15.731</ele>
        <time>2019-11-15T07:24:27Z</time>
      </trkpt>
      <trkpt lat="49.42119" lon="0.25267">
        <ele>6.162</ele>
        <time>2019-11-15T07:24:57Z</time>
      </trkpt>
      <trkpt lat="49.4226" lon="0.25287">
        <ele>2.722</ele>
        <time>2019-11-15T07:25:30Z</time>
      </trkpt>
      <trkpt lat="49.4226" lon="0.25529">
        <ele>2.976</ele>
        <time>2019-11-15T07:26:03Z</time>
      </trkpt>
      <trkpt lat="49.42263" lon="0.2574">
        <ele>4.719</ele>
        <time>2019-11-15T07:26:33Z</time>
      </trkpt>
      <trkpt lat="49.42269" lon="0.25974">
        <ele>5.682</ele>
        <time>2019-11-15T07:27:06Z</time>
      </trkpt>
      <trkpt lat="49.42133" lon="0.25998">
        <ele>10.213</ele>
        <time>2019-11-15T07:27:39Z</time>
      </trkpt>
      <trkpt lat="49.42008" lon="0.26038">
        <ele>3.53</ele>
        <time>2019-11-15T07:28:09Z</time>
      </trkpt>
      <trkpt lat="49.41988" lon="0.26292">
        <ele>4.137</ele>
        <time>2019-11-15T07:28:42Z</time>
      </trkpt>
      <trkpt lat="49.41976" lon="0.26534">
        <ele>5.003</ele>
        <time>2019-11-15T07:29:15Z</time>
      </trkpt>
      <trkpt lat="49.41962" lon="0.26755">
        <ele>4.691</ele>
        <time>2019-11-15T07:29:45Z</time>
      </trkpt>
      <trkpt lat="49.41946" lon="0.26999">
        <ele>4.765</ele>
        <time>2019-11-15T07:30:18Z</time>
      </trkpt>
      <trkpt lat="49.41933" lon="0.2724">
        <ele>8.436</ele>
        <time>2019-11-15T07:30:51Z</time>
      </trkpt>
      <trkpt lat="49.41942" lon="0.2744">
        <ele>6.2</ele>
        <time>2019-11-15T07:31:21Z</time>
      </trkpt>
      <trkpt lat="49.41924" lon="0.27454">
        <ele>2.646</ele>
        <time>2019-11-15T07:31:54Z</time>
      </trkpt>
      <trkpt lat="49.41966" lon="0.27593">
        <ele>3.875</ele>
        <time>2019-11-15T07:32:27Z</time>
      </trkpt>
      <trkpt lat="49.41939" lon="0.27567">
        <ele>5.357</ele>
        <time>2019-11-15T07:32:57Z</time>
      </trkpt>
      <trkpt lat="49.42013" lon="0.27568">
        <ele>6.173</ele>
        <time>2019-11-15T07:33:33Z</time>
      </trkpt>
      <trkpt lat="49.42112" lon="0.27564">
        <ele>13.164</ele>
        <time>2019-11-15T07:34:06Z</time>
      </trkpt>
      <trkpt lat="49.42204" lon="0.27554">
        <ele>16.043</ele>
        <time>2019-11-15T07:34:36Z</time>
      </trkpt>
      <trkpt lat="49.42302" lon="0.27529">
        <ele>20.278</ele>
        <time>2019-11-15T07:35:09Z</time>
      </trkpt>
      <trkpt lat="49.42406" lon="0.27513">
        <ele>26.633</ele>
        <time>2019-11-15T07:35:42Z</time>
      </trkpt>
      <trkpt lat="49.4249" lon="0.275">
        <ele>28.61</ele>
        <time>2019-11-15T07:36:12.001Z</time>
      </trkpt>
      <trkpt lat="49.42573" lon="0.27489">
        <ele>37.086</ele>
        <time>2019-11-15T07:36:45.001Z</time>
      </trkpt>
      <trkpt lat="49.42655" lon="0.27479">
        <ele>46.714</ele>
        <time>2019-11-15T07:37:18.001Z</time>
      </trkpt>
      <trkpt lat="49.42723" lon="0.27471">
        <ele>53.773</ele>
        <time>2019-11-15T07:37:48.001Z</time>
      </trkpt>
      <trkpt lat="49.42796" lon="0.27461">
        <ele>61.113</ele>
        <time>2019-11-15T07:38:21.001Z</time>
      </trkpt>
      <trkpt lat="49.42868" lon="0.27452">
        <ele>61.591</ele>
        <time>2019-11-15T07:38:54.001Z</time>
      </trkpt>
      <trkpt lat="49.42942" lon="0.27439">
        <ele>58.686</ele>
        <time>2019-11-15T07:39:24.001Z</time>
      </trkpt>
      <trkpt lat="49.43027" lon="0.27428">
        <ele>65.877</ele>
        <time>2019-11-15T07:39:57.001Z</time>
      </trkpt>
      <trkpt lat="49.43127" lon="0.27414">
        <ele>67.369</ele>
        <time>2019-11-15T07:40:30.001Z</time>
      </trkpt>
      <trkpt lat="49.43238" lon="0.27399">
        <ele>69.607</ele>
        <time>2019-11-15T07:41:00Z</time>
      </trkpt>
      <trkpt lat="49.43414" lon="0.27375">
        <ele>67.007</ele>
        <time>2019-11-15T07:41:33.001Z</time>
      </trkpt>
      <trkpt lat="49.43689" lon="0.27337">
        <ele>57.885</ele>
        <time>2019-11-15T07:42:06.001Z</time>
      </trkpt>
      <trkpt lat="49.4402" lon="0.27289">
        <ele>28.878</ele>
        <time>2019-11-15T07:42:36.001Z</time>
      </trkpt>
      <trkpt lat="49.44396" lon="0.27235">
        <ele>3.7</ele>
        <time>2019-11-15T07:43:09.001Z</time>
      </trkpt>
      <trkpt lat="49.44634" lon="0.27206">
        <ele>4.5</ele>
        <time>2019-11-15T07:43:42.001Z</time>
      </trkpt>
      <trkpt lat="49.44822" lon="0.2718">
        <ele>2.468</ele>
        <time>2019-11-15T07:44:12.001Z</time>
      </trkpt>
      <trkpt lat="49.4501" lon="0.27191">
        <ele>8.681</ele>
        <time>2019-11-15T07:44:45.001Z</time>
      </trkpt>
      <trkpt lat="49.45187" lon="0.27164">
        <ele>4.272</ele>
        <time>2019-11-15T07:45:18.001Z</time>
      </trkpt>
      <trkpt lat="49.45283" lon="0.27252">
        <ele>9.666</ele>
        <time>2019-11-15T07:45:48.001Z</time>
      </trkpt>
      <trkpt lat="49.45371" lon="0.2716">
        <ele>5.18</ele>
        <time>2019-11-15T07:46:21.001Z</time>
      </trkpt>
      <trkpt lat="49.4537" lon="0.27116">
        <ele>8.534</ele>
        <time>2019-11-15T07:48:39.001Z</time>
      </trkpt>
      <trkpt lat="49.45391" lon="0.26905">
        <ele>4.48</ele>
        <time>2019-11-15T07:49:09.001Z</time>
      </trkpt>
      <trkpt lat="49.45413" lon="0.26632">
        <ele>4.212</ele>
        <time>2019-11-15T07:49:42.001Z</time>
      </trkpt>
      <trkpt lat="49.45431" lon="0.26354">
        <ele>3.95</ele>
        <time>2019-11-15T07:50:15.001Z</time>
      </trkpt>
      <trkpt lat="49.4545" lon="0.26101">
        <ele>5.304</ele>
        <time>2019-11-15T07:50:45.001Z</time>
      </trkpt>
      <trkpt lat="49.45468" lon="0.25833">
        <ele>7.248</ele>
        <time>2019-11-15T07:51:18.001Z</time>
      </trkpt>
      <trkpt lat="49.45495" lon="0.25544">
        <ele>5.209</ele>
        <time>2019-11-15T07:51:51.001Z</time>
      </trkpt>
      <trkpt lat="49.45504" lon="0.25279">
        <ele>3.953</ele>
        <time>2019-11-15T07:52:21.001Z</time>
      </trkpt>
      <trkpt lat="49.45521" lon="0.25018">
        <ele>4.187</ele>
        <time>2019-11-15T07:52:54.001Z</time>
      </trkpt>
      <trkpt lat="49.45528" lon="0.24768">
        <ele>8.764</ele>
        <time>2019-11-15T07:53:27.001Z</time>
      </trkpt>
      <trkpt lat="49.45532" lon="0.24547">
        <ele>7.852</ele>
        <time>2019-11-15T07:53:57.001Z</time>
      </trkpt>
      <trkpt lat="49.45541" lon="0.24328">
        <ele>5.551</ele>
        <time>2019-11-15T07:54:30.001Z</time>
      </trkpt>
      <trkpt lat="49.45544" lon="0.24159">
        <ele>8.464</ele>
        <time>2019-11-15T07:55:03.001Z</time>
      </trkpt>
      <trkpt lat="49.4555" lon="0.2401">
        <ele>11.018</ele>
        <time>2019-11-15T07:55:33.001Z</time>
      </trkpt>
      <trkpt lat="49.45556" lon="0.23803">
        <ele>12.178</ele>
        <time>2019-11-15T07:56:06.001Z</time>
      </trkpt>
      <trkpt lat="49.4559" lon="0.23469">
        <ele>5.32</ele>
        <time>2019-11-15T07:56:39.001Z</time>
      </trkpt>
      <trkpt lat="49.45643" lon="0.23157">
        <ele>3.677</ele>
        <time>2019-11-15T07:57:09.001Z</time>
      </trkpt>
      <trkpt lat="49.45664" lon="0.2284">
        <ele>3.839</ele>
        <time>2019-11-15T07:57:42.001Z</time>
      </trkpt>
      <trkpt lat="49.45688" lon="0.22544">
        <ele>2.795</ele>
        <time>2019-11-15T07:58:15.001Z</time>
      </trkpt>
      <trkpt lat="49.45705" lon="0.22298">
        <ele>4.797</ele>
        <time>2019-11-15T07:58:45.001Z</time>
      </trkpt>
      <trkpt lat="49.45723" lon="0.22031">
        <ele>4.693</ele>
        <time>2019-11-15T07:59:18.001Z</time>
      </trkpt>
      <trkpt lat="49.45739" lon="0.21782">
        <ele>5.544</ele>
        <time>2019-11-15T07:59:51.001Z</time>
      </trkpt>
      <trkpt lat="49.45754" lon="0.21551">
        <ele>7.164</ele>
        <time>2019-11-15T08:00:21.001Z</time>
      </trkpt>
      <trkpt lat="49.45771" lon="0.21281">
        <ele>6.115</ele>
        <time>2019-11-15T08:00:54.001Z</time>
      </trkpt>
      <trkpt lat="49.45791" lon="0.21017">
        <ele>5.909</ele>
        <time>2019-11-15T08:01:27.001Z</time>
      </trkpt>
      <trkpt lat="49.45774" lon="0.20788">
        <ele>5.049</ele>
        <time>2019-11-15T08:01:57.001Z</time>
      </trkpt>
      <trkpt lat="49.45801" lon="0.20568">
        <ele>4.042</ele>
        <time>2019-11-15T08:02:30.001Z</time>
      </trkpt>
      <trkpt lat="49.45804" lon="0.20317">
        <ele>2.819</ele>
        <time>2019-11-15T08:03:03.001Z</time>
      </trkpt>
      <trkpt lat="49.45855" lon="0.20103">
        <ele>4.708</ele>
        <time>2019-11-15T08:03:33.001Z</time>
      </trkpt>
      <trkpt lat="49.45883" lon="0.19842">
        <ele>7.061</ele>
        <time>2019-11-15T08:04:06.001Z</time>
      </trkpt>
      <trkpt lat="49.45918" lon="0.19587">
        <ele>5.092</ele>
        <time>2019-11-15T08:04:39.001Z</time>
      </trkpt>
      <trkpt lat="49.45948" lon="0.19353">
        <ele>3.311</ele>
        <time>2019-11-15T08:05:09.001Z</time>
      </trkpt>
      <trkpt lat="49.45983" lon="0.19099">
        <ele>3.718</ele>
        <time>2019-11-15T08:05:42.001Z</time>
      </trkpt>
      <trkpt lat="49.46019" lon="0.18854">
        <ele>4.173</ele>
        <time>2019-11-15T08:06:15.001Z</time>
      </trkpt>
      <trkpt lat="49.46107" lon="0.18703">
        <ele>4.444</ele>
        <time>2019-11-15T08:06:45.001Z</time>
      </trkpt>
      <trkpt lat="49.46248" lon="0.18608">
        <ele>7.306</ele>
        <time>2019-11-15T08:07:18.001Z</time>
      </trkpt>
      <trkpt lat="49.4639" lon="0.18521">
        <ele>5.692</ele>
        <time>2019-11-15T08:07:51.001Z</time>
      </trkpt>
      <trkpt lat="49.46517" lon="0.18439">
        <ele>5.664</ele>
        <time>2019-11-15T08:08:21.001Z</time>
      </trkpt>
      <trkpt lat="49.4665" lon="0.18319">
        <ele>7.124</ele>
        <time>2019-11-15T08:08:54.001Z</time>
      </trkpt>
      <trkpt lat="49.46809" lon="0.18275">
        <ele>4.066</ele>
        <time>2019-11-15T08:09:27.001Z</time>
      </trkpt>
      <trkpt lat="49.46941" lon="0.18205">
        <ele>3.926</ele>
        <time>2019-11-15T08:09:57.001Z</time>
      </trkpt>
      <trkpt lat="49.47073" lon="0.18129">
        <ele>4.036</ele>
        <time>2019-11-15T08:10:30.001Z</time>
      </trkpt>
      <trkpt lat="49.47203" lon="0.18047">
        <ele>6.461</ele>
        <time>2019-11-15T08:11:03.001Z</time>
      </trkpt>
      <trkpt lat="49.47328" lon="0.17942">
        <ele>6.24</ele>
        <time>2019-11-15T08:11:36.001Z</time>
      </trkpt>
      <trkpt lat="49.47347" lon="0.17784">
        <ele>5.588</ele>
        <time>2019-11-15T08:12:06.001Z</time>
      </trkpt>
      <trkpt lat="49.47444" lon="0.17652">
        <ele>4.095</ele>
        <time>2019-11-15T08:12:39.001Z</time>
      </trkpt>
      <trkpt lat="49.47495" lon="0.17514">
        <ele>6.345</ele>
        <time>2019-11-15T08:13:12.001Z</time>
      </trkpt>
      <trkpt lat="49.47471" lon="0.17417">
        <ele>6.497</ele>
        <time>2019-11-15T08:17:18.001Z</time>
      </trkpt>
      <trkpt lat="49.47421" lon="0.17221">
        <ele>10.139</ele>
        <time>2019-11-15T08:17:51.001Z</time>
      </trkpt>
      <trkpt lat="49.47444" lon="0.17041">
        <ele>9.775</ele>
        <time>2019-11-15T08:18:24.001Z</time>
      </trkpt>
      <trkpt lat="49.47546" lon="0.16978">
        <ele>9.638</ele>
        <time>2019-11-15T08:18:54.001Z</time>
      </trkpt>
      <trkpt lat="49.47647" lon="0.17099">
        <ele>12.488</ele>
        <time>2019-11-15T08:19:27.001Z</time>
      </trkpt>
      <trkpt lat="49.47753" lon="0.17145">
        <ele>7.52</ele>
        <time>2019-11-15T08:20:00Z</time>
      </trkpt>
      <trkpt lat="49.47887" lon="0.16973">
        <ele>7.888</ele>
        <time>2019-11-15T08:20:30.001Z</time>
      </trkpt>
      <trkpt lat="49.48068" lon="0.16781">
        <ele>9.175</ele>
        <time>2019-11-15T08:21:03.001Z</time>
      </trkpt>
      <trkpt lat="49.482" lon="0.16642">
        <ele>6.686</ele>
        <time>2019-11-15T08:21:36.001Z</time>
      </trkpt>
      <trkpt lat="49.48333" lon="0.16558">
        <ele>4.592</ele>
        <time>2019-11-15T08:22:06.001Z</time>
      </trkpt>
      <trkpt lat="49.48313" lon="0.1631">
        <ele>3.964</ele>
        <time>2019-11-15T08:22:39.001Z</time>
      </trkpt>
      <trkpt lat="49.48238" lon="0.16068">
        <ele>4.28</ele>
        <time>2019-11-15T08:23:12.001Z</time>
      </trkpt>
      <trkpt lat="49.48181" lon="0.15854">
        <ele>5.227</ele>
        <time>2019-11-15T08:23:42.001Z</time>
      </trkpt>
      <trkpt lat="49.48179" lon="0.156">
        <ele>6.526</ele>
        <time>2019-11-15T08:24:15.001Z</time>
      </trkpt>
      <trkpt lat="49.48184" lon="0.15427">
        <ele>8.051</ele>
        <time>2019-11-15T08:24:48.001Z</time>
      </trkpt>
      <trkpt lat="49.4825" lon="0.15304">
        <ele>9.393</ele>
        <time>2019-11-15T08:25:21.001Z</time>
      </trkpt>
      <trkpt lat="49.48283" lon="0.1521">
        <ele>11.056</ele>
        <time>2019-11-15T08:25:54.001Z</time>
      </trkpt>
      <trkpt lat="49.48188" lon="0.15036">
        <ele>8.131</ele>
        <time>2019-11-15T08:26:30.001Z</time>
      </trkpt>
      <trkpt lat="49.48125" lon="0.14843">
        <ele>5.261</ele>
        <time>2019-11-15T08:27:00Z</time>
      </trkpt>
      <trkpt lat="49.48075" lon="0.14644">
        <ele>13.443</ele>
        <time>2019-11-15T08:27:33.001Z</time>
      </trkpt>
      <trkpt lat="49.48008" lon="0.1445">
        <ele>39.441</ele>
        <time>2019-11-15T08:28:06.001Z</time>
      </trkpt>
      <trkpt lat="49.4797" lon="0.14242">
        <ele>18.259</ele>
        <time>2019-11-15T08:28:36.001Z</time>
      </trkpt>
      <trkpt lat="49.47986" lon="0.14139">
        <ele>6.391</ele>
        <time>2019-11-15T08:29:12.001Z</time>
      </trkpt>
      <trkpt lat="49.48118" lon="0.14085">
        <ele>10.709</ele>
        <time>2019-11-15T08:29:45.001Z</time>
      </trkpt>
      <trkpt lat="49.48159" lon="0.13931">
        <ele>6.449</ele>
        <time>2019-11-15T08:30:15.001Z</time>
      </trkpt>
      <trkpt lat="49.48251" lon="0.13852">
        <ele>7.926</ele>
        <time>2019-11-15T08:30:54.001Z</time>
      </trkpt>
      <trkpt lat="49.4829" lon="0.13645">
        <ele>3.455</ele>
        <time>2019-11-15T08:31:27.001Z</time>
      </trkpt>
      <trkpt lat="49.48324" lon="0.13477">
        <ele>5.6</ele>
        <time>2019-11-15T08:31:57.001Z</time>
      </trkpt>
      <trkpt lat="49.48358" lon="0.13296">
        <ele>4.674</ele>
        <time>2019-11-15T08:32:30.001Z</time>
      </trkpt>
      <trkpt lat="49.4838" lon="0.13143">
        <ele>6.111</ele>
        <time>2019-11-15T08:33:03.001Z</time>
      </trkpt>
      <trkpt lat="49.48393" lon="0.12979">
        <ele>4.059</ele>
        <time>2019-11-15T08:33:33.001Z</time>
      </trkpt>
      <trkpt lat="49.48403" lon="0.12785">
        <ele>7.262</ele>
        <time>2019-11-15T08:34:06.001Z</time>
      </trkpt>
      <trkpt lat="49.48506" lon="0.1273">
        <ele>10.069</ele>
        <time>2019-11-15T08:34:45.001Z</time>
      </trkpt>
      <trkpt lat="49.48608" lon="0.12662">
        <ele>9.227</ele>
        <time>2019-11-15T08:35:15.001Z</time>
      </trkpt>
      <trkpt lat="49.48706" lon="0.12598">
        <ele>11.528</ele>
        <time>2019-11-15T08:35:48.001Z</time>
      </trkpt>
      <trkpt lat="49.48798" lon="0.12548">
        <ele>13.579</ele>
        <time>2019-11-15T08:36:21.001Z</time>
      </trkpt>
      <trkpt lat="49.48904" lon="0.12481">
        <ele>6.621</ele>
        <time>2019-11-15T08:36:51.001Z</time>
      </trkpt>
      <trkpt lat="49.48933" lon="0.12372">
        <ele>9.491</ele>
        <time>2019-11-15T08:37:24.001Z</time>
      </trkpt>
      <trkpt lat="49.48914" lon="0.12256">
        <ele>9.586</ele>
        <time>2019-11-15T08:38:21.001Z</time>
      </trkpt>
      <trkpt lat="49.48901" lon="0.12066">
        <ele>6.589</ele>
        <time>2019-11-15T08:38:51.001Z</time>
      </trkpt>
      <trkpt lat="49.48968" lon="0.11964">
        <ele>7.1</ele>
        <time>2019-11-15T08:39:24.001Z</time>
      </trkpt>
      <trkpt lat="49.49042" lon="0.11922">
        <ele>6.36</ele>
        <time>2019-11-15T08:40:24.001Z</time>
      </trkpt>
      <trkpt lat="49.49076" lon="0.11862">
        <ele>7.674</ele>
        <time>2019-11-15T08:41:18.001Z</time>
      </trkpt>
      <trkpt lat="49.49082" lon="0.11694">
        <ele>13.044</ele>
        <time>2019-11-15T08:41:51.001Z</time>
      </trkpt>
      <trkpt lat="49.49087" lon="0.11511">
        <ele>10.291</ele>
        <time>2019-11-15T08:42:24.001Z</time>
      </trkpt>
      <trkpt lat="49.49093" lon="0.11415">
        <ele>11.584</ele>
        <time>2019-11-15T08:42:57.001Z</time>
      </trkpt>
      <trkpt lat="49.49093" lon="0.11468">
        <ele>8.342</ele>
        <time>2019-11-15T08:45:18.001Z</time>
      </trkpt>
      <trkpt lat="49.49084" lon="0.11645">
        <ele>9.831</ele>
        <time>2019-11-15T08:45:51.001Z</time>
      </trkpt>
      <trkpt lat="49.48987" lon="0.11648">
        <ele>15.756</ele>
        <time>2019-11-15T08:46:21.001Z</time>
      </trkpt>
      <trkpt lat="49.4886" lon="0.11551">
        <ele>9.431</ele>
        <time>2019-11-15T08:46:54.001Z</time>
      </trkpt>
      <trkpt lat="49.48804" lon="0.11504">
        <ele>7.505</ele>
        <time>2019-11-15T08:47:30.001Z</time>
      </trkpt>
      <trkpt lat="49.48727" lon="0.1142">
        <ele>3.435</ele>
        <time>2019-11-15T08:48:00Z</time>
      </trkpt>
      <trkpt lat="49.48733" lon="0.11347">
        <ele>12.144</ele>
        <time>2019-11-15T08:49:12.001Z</time>
      </trkpt>
      <trkpt lat="49.48744" lon="0.11345">
        <ele>22.139</ele>
        <time>2019-11-15T08:50:54.001Z</time>
      </trkpt>
      <trkpt lat="49.48726" lon="0.11364">
        <ele>17.283</ele>
        <time>2019-11-15T08:51:45.001Z</time>
      </trkpt>
      <trkpt lat="49.48709" lon="0.11341">
        <ele>16.77</ele>
        <time>2019-11-15T08:53:45.001Z</time>
      </trkpt>
      <trkpt lat="49.48363" lon="0.11896">
        <ele>6</ele>
        <time>2019-11-15T09:06:36.001Z</time>
      </trkpt>
      <trkpt lat="49.48723" lon="0.11353">
        <ele>10.714</ele>
        <time>2019-11-15T09:07:33.001Z</time>
      </trkpt>
      <trkpt lat="49.48741" lon="0.11394">
        <ele>10.656</ele>
        <time>2019-11-15T09:08:36.001Z</time>
      </trkpt>
      <trkpt lat="49.48737" lon="0.11411">
        <ele>7.233</ele>
        <time>2019-11-15T09:11:27.001Z</time>
      </trkpt>
      <trkpt lat="49.48699" lon="0.11595">
        <ele>9.149</ele>
        <time>2019-11-15T09:12:45.001Z</time>
      </trkpt>
      <trkpt lat="49.48738" lon="0.11459">
        <ele>9.144</ele>
        <time>2019-11-15T09:13:18.001Z</time>
      </trkpt>
      <trkpt lat="49.48702" lon="0.11628">
        <ele>15.239</ele>
        <time>2019-11-15T09:13:57.001Z</time>
      </trkpt>
      <trkpt lat="49.48723" lon="0.11433">
        <ele>6.5</ele>
        <time>2019-11-15T09:26:07.001Z</time>
      </trkpt>
      <trkpt lat="49.48743" lon="0.11477">
        <ele>1.705</ele>
        <time>2019-11-15T09:33:16Z</time>
      </trkpt>
      <trkpt lat="49.48826" lon="0.11532">
        <ele>5.79</ele>
        <time>2019-11-15T09:33:55.001Z</time>
      </trkpt>
      <trkpt lat="49.48934" lon="0.11647">
        <ele>11.194</ele>
        <time>2019-11-15T09:34:25.001Z</time>
      </trkpt>
      <trkpt lat="49.48958" lon="0.11847">
        <ele>12.816</ele>
        <time>2019-11-15T09:34:58.001Z</time>
      </trkpt>
      <trkpt lat="49.48901" lon="0.11985">
        <ele>8.936</ele>
        <time>2019-11-15T09:35:31.001Z</time>
      </trkpt>
      <trkpt lat="49.48886" lon="0.12111">
        <ele>6.408</ele>
        <time>2019-11-15T09:36:01.001Z</time>
      </trkpt>
      <trkpt lat="49.48924" lon="0.12324">
        <ele>14.09</ele>
        <time>2019-11-15T09:36:34.001Z</time>
      </trkpt>
      <trkpt lat="49.48958" lon="0.12449">
        <ele>10.123</ele>
        <time>2019-11-15T09:37:13.001Z</time>
      </trkpt>
      <trkpt lat="49.49011" lon="0.12649">
        <ele>15.368</ele>
        <time>2019-11-15T09:37:43.001Z</time>
      </trkpt>
      <trkpt lat="49.49072" lon="0.12899">
        <ele>17.752</ele>
        <time>2019-11-15T09:38:16Z</time>
      </trkpt>
      <trkpt lat="49.49128" lon="0.13147">
        <ele>16.238</ele>
        <time>2019-11-15T09:38:49.001Z</time>
      </trkpt>
      <trkpt lat="49.49114" lon="0.13296">
        <ele>12.225</ele>
        <time>2019-11-15T09:39:19.001Z</time>
      </trkpt>
      <trkpt lat="49.4902" lon="0.13324">
        <ele>10.019</ele>
        <time>2019-11-15T09:39:52.001Z</time>
      </trkpt>
      <trkpt lat="49.48923" lon="0.13317">
        <ele>9.631</ele>
        <time>2019-11-15T09:40:25.001Z</time>
      </trkpt>
      <trkpt lat="49.48893" lon="0.13306">
        <ele>13.802</ele>
        <time>2019-11-15T09:52:46.001Z</time>
      </trkpt>
      <trkpt lat="49.48938" lon="0.134">
        <ele>15.784</ele>
        <time>2019-11-15T10:03:52.001Z</time>
      </trkpt>
      <trkpt lat="49.49039" lon="0.13384">
        <ele>6.397</ele>
        <time>2019-11-15T10:04:25.001Z</time>
      </trkpt>
      <trkpt lat="49.49149" lon="0.13307">
        <ele>11.061</ele>
        <time>2019-11-15T10:04:55.001Z</time>
      </trkpt>
      <trkpt lat="49.49257" lon="0.13248">
        <ele>13.52</ele>
        <time>2019-11-15T10:05:28.001Z</time>
      </trkpt>
      <trkpt lat="49.49369" lon="0.13187">
        <ele>9.217</ele>
        <time>2019-11-15T10:06:01.001Z</time>
      </trkpt>
      <trkpt lat="49.49514" lon="0.13161">
        <ele>3.811</ele>
        <time>2019-11-15T10:06:31.001Z</time>
      </trkpt>
      <trkpt lat="49.49704" lon="0.13139">
        <ele>2.217</ele>
        <time>2019-11-15T10:07:04.001Z</time>
      </trkpt>
      <trkpt lat="49.49723" lon="0.12958">
        <ele>15.275</ele>
        <time>2019-11-15T10:07:37.001Z</time>
      </trkpt>
      <trkpt lat="49.49719" lon="0.12826">
        <ele>15.409</ele>
        <time>2019-11-15T10:08:07.001Z</time>
      </trkpt>
      <trkpt lat="49.49808" lon="0.12836">
        <ele>15.674</ele>
        <time>2019-11-15T10:08:40.001Z</time>
      </trkpt>
      <trkpt lat="49.49933" lon="0.12931">
        <ele>25.661</ele>
        <time>2019-11-15T10:09:13.001Z</time>
      </trkpt>
      <trkpt lat="49.49995" lon="0.1298">
        <ele>27.697</ele>
        <time>2019-11-15T10:10:31.001Z</time>
      </trkpt>
      <trkpt lat="49.50087" lon="0.13052">
        <ele>22.391</ele>
        <time>2019-11-15T10:11:04.001Z</time>
      </trkpt>
      <trkpt lat="49.50157" lon="0.13105">
        <ele>16.299</ele>
        <time>2019-11-15T10:11:46.001Z</time>
      </trkpt>
      <trkpt lat="49.50212" lon="0.13148">
        <ele>25.847</ele>
        <time>2019-11-15T10:12:25.001Z</time>
      </trkpt>
      <trkpt lat="49.50273" lon="0.13211">
        <ele>38.665</ele>
        <time>2019-11-15T10:12:58.001Z</time>
      </trkpt>
      <trkpt lat="49.50821" lon="0.1364">
        <ele>48.026</ele>
        <time>2019-11-15T10:17:15.001Z</time>
      </trkpt>
      <trkpt lat="49.50886" lon="0.13597">
        <ele>51.985</ele>
        <time>2019-11-15T10:17:45.001Z</time>
      </trkpt>
      <trkpt lat="49.50907" lon="0.13516">
        <ele>54.289</ele>
        <time>2019-11-15T10:18:21.001Z</time>
      </trkpt>
      <trkpt lat="49.50945" lon="0.13412">
        <ele>58.757</ele>
        <time>2019-11-15T10:18:54.001Z</time>
      </trkpt>
      <trkpt lat="49.50976" lon="0.1333">
        <ele>60.869</ele>
        <time>2019-11-15T10:19:24.001Z</time>
      </trkpt>
      <trkpt lat="49.51004" lon="0.1325">
        <ele>68.649</ele>
        <time>2019-11-15T10:19:57.001Z</time>
      </trkpt>
      <trkpt lat="49.51027" lon="0.13162">
        <ele>75.419</ele>
        <time>2019-11-15T10:20:30.001Z</time>
      </trkpt>
      <trkpt lat="49.51052" lon="0.13077">
        <ele>82.934</ele>
        <time>2019-11-15T10:21:00Z</time>
      </trkpt>
      <trkpt lat="49.51085" lon="0.12953">
        <ele>86.108</ele>
        <time>2019-11-15T10:21:33.001Z</time>
      </trkpt>
      <trkpt lat="49.51131" lon="0.12834">
        <ele>87.387</ele>
        <time>2019-11-15T10:22:06.001Z</time>
      </trkpt>
      <trkpt lat="49.51185" lon="0.12705">
        <ele>91.424</ele>
        <time>2019-11-15T10:22:36.001Z</time>
      </trkpt>
      <trkpt lat="49.5127" lon="0.12586">
        <ele>94.054</ele>
        <time>2019-11-15T10:23:09.001Z</time>
      </trkpt>
      <trkpt lat="49.51348" lon="0.12471">
        <ele>94.323</ele>
        <time>2019-11-15T10:23:42.001Z</time>
      </trkpt>
      <trkpt lat="49.51429" lon="0.12347">
        <ele>80.392</ele>
        <time>2019-11-15T10:24:12.001Z</time>
      </trkpt>
      <trkpt lat="49.51513" lon="0.12212">
        <ele>81.875</ele>
        <time>2019-11-15T10:24:45.001Z</time>
      </trkpt>
      <trkpt lat="49.51602" lon="0.12072">
        <ele>81.305</ele>
        <time>2019-11-15T10:25:18.001Z</time>
      </trkpt>
      <trkpt lat="49.51682" lon="0.11939">
        <ele>88.838</ele>
        <time>2019-11-15T10:25:48.001Z</time>
      </trkpt>
      <trkpt lat="49.51782" lon="0.118">
        <ele>98.206</ele>
        <time>2019-11-15T10:26:21.001Z</time>
      </trkpt>
      <trkpt lat="49.51891" lon="0.11651">
        <ele>94.915</ele>
        <time>2019-11-15T10:26:54.001Z</time>
      </trkpt>
      <trkpt lat="49.5199" lon="0.11518">
        <ele>97.636</ele>
        <time>2019-11-15T10:27:24.001Z</time>
      </trkpt>
      <trkpt lat="49.52075" lon="0.11406">
        <ele>92.716</ele>
        <time>2019-11-15T10:28:00Z</time>
      </trkpt>
      <trkpt lat="49.52047" lon="0.11261">
        <ele>86.987</ele>
        <time>2019-11-15T10:28:33.001Z</time>
      </trkpt>
      <trkpt lat="49.52075" lon="0.11029">
        <ele>88.042</ele>
        <time>2019-11-15T10:29:03.001Z</time>
      </trkpt>
      <trkpt lat="49.52204" lon="0.10937">
        <ele>90.014</ele>
        <time>2019-11-15T10:29:36.001Z</time>
      </trkpt>
      <trkpt lat="49.52365" lon="0.1088">
        <ele>80.969</ele>
        <time>2019-11-15T10:30:09.001Z</time>
      </trkpt>
      <trkpt lat="49.52503" lon="0.10704">
        <ele>75.795</ele>
        <time>2019-11-15T10:30:39.001Z</time>
      </trkpt>
      <trkpt lat="49.525" lon="0.10612">
        <ele>75.336</ele>
        <time>2019-11-15T10:31:12.001Z</time>
      </trkpt>
      <trkpt lat="49.52447" lon="0.10807">
        <ele>77.468</ele>
        <time>2019-11-15T10:31:45.001Z</time>
      </trkpt>
      <trkpt lat="49.52358" lon="0.10865">
        <ele>79.673</ele>
        <time>2019-11-15T10:32:15.001Z</time>
      </trkpt>
      <trkpt lat="49.52256" lon="0.10858">
        <ele>84.334</ele>
        <time>2019-11-15T10:32:48.001Z</time>
      </trkpt>
      <trkpt lat="49.52258" lon="0.1073">
        <ele>91.793</ele>
        <time>2019-11-15T10:33:21.001Z</time>
      </trkpt>
      <trkpt lat="49.52251" lon="0.10559">
        <ele>90.32</ele>
        <time>2019-11-15T10:33:54.001Z</time>
      </trkpt>
      <trkpt lat="49.52376" lon="0.10438">
        <ele>84.445</ele>
        <time>2019-11-15T10:34:27.001Z</time>
      </trkpt>
      <trkpt lat="49.52511" lon="0.10427">
        <ele>85.136</ele>
        <time>2019-11-15T10:35:00Z</time>
      </trkpt>
      <trkpt lat="49.52644" lon="0.10412">
        <ele>81.399</ele>
        <time>2019-11-15T10:35:30.001Z</time>
      </trkpt>
      <trkpt lat="49.52766" lon="0.10383">
        <ele>85.82</ele>
        <time>2019-11-15T10:36:03.001Z</time>
      </trkpt>
      <trkpt lat="49.52902" lon="0.10345">
        <ele>85.669</ele>
        <time>2019-11-15T10:36:36.001Z</time>
      </trkpt>
      <trkpt lat="49.53007" lon="0.10352">
        <ele>85.453</ele>
        <time>2019-11-15T10:37:06.001Z</time>
      </trkpt>
      <trkpt lat="49.53199" lon="0.10357">
        <ele>83.624</ele>
        <time>2019-11-15T10:37:39.001Z</time>
      </trkpt>
      <trkpt lat="49.53322" lon="0.10385">
        <ele>84.976</ele>
        <time>2019-11-15T10:38:12.001Z</time>
      </trkpt>
      <trkpt lat="49.53415" lon="0.10431">
        <ele>88.219</ele>
        <time>2019-11-15T10:38:42.001Z</time>
      </trkpt>
      <trkpt lat="49.5349" lon="0.10511">
        <ele>91.312</ele>
        <time>2019-11-15T10:39:15.001Z</time>
      </trkpt>
      <trkpt lat="49.53589" lon="0.10667">
        <ele>92.992</ele>
        <time>2019-11-15T10:39:48.001Z</time>
      </trkpt>
      <trkpt lat="49.53636" lon="0.10818">
        <ele>85.617</ele>
        <time>2019-11-15T10:40:18.001Z</time>
      </trkpt>
      <trkpt lat="49.53689" lon="0.10984">
        <ele>87.107</ele>
        <time>2019-11-15T10:40:51.001Z</time>
      </trkpt>
      <trkpt lat="49.53729" lon="0.11228">
        <ele>85.259</ele>
        <time>2019-11-15T10:41:24.001Z</time>
      </trkpt>
      <trkpt lat="49.53797" lon="0.11421">
        <ele>81.95</ele>
        <time>2019-11-15T10:41:54.001Z</time>
      </trkpt>
      <trkpt lat="49.53945" lon="0.11485">
        <ele>81.782</ele>
        <time>2019-11-15T10:42:27.001Z</time>
      </trkpt>
      <trkpt lat="49.54051" lon="0.11581">
        <ele>82.319</ele>
        <time>2019-11-15T10:43:00Z</time>
      </trkpt>
      <trkpt lat="49.54141" lon="0.11726">
        <ele>83.903</ele>
        <time>2019-11-15T10:43:30.001Z</time>
      </trkpt>
      <trkpt lat="49.54198" lon="0.11827">
        <ele>86.775</ele>
        <time>2019-11-15T10:44:03.001Z</time>
      </trkpt>
      <trkpt lat="49.54255" lon="0.11908">
        <ele>92.235</ele>
        <time>2019-11-15T10:44:36.001Z</time>
      </trkpt>
      <trkpt lat="49.54309" lon="0.12009">
        <ele>94.993</ele>
        <time>2019-11-15T10:45:06.001Z</time>
      </trkpt>
      <trkpt lat="49.54437" lon="0.1219">
        <ele>80.826</ele>
        <time>2019-11-15T10:45:39.001Z</time>
      </trkpt>
      <trkpt lat="49.54522" lon="0.12399">
        <ele>77.418</ele>
        <time>2019-11-15T10:46:12.001Z</time>
      </trkpt>
      <trkpt lat="49.54592" lon="0.12553">
        <ele>78.711</ele>
        <time>2019-11-15T10:46:42.001Z</time>
      </trkpt>
      <trkpt lat="49.54717" lon="0.1274">
        <ele>69.029</ele>
        <time>2019-11-15T10:47:15.001Z</time>
      </trkpt>
      <trkpt lat="49.5494" lon="0.12978">
        <ele>58.298</ele>
        <time>2019-11-15T10:47:48.001Z</time>
      </trkpt>
      <trkpt lat="49.55043" lon="0.13062">
        <ele>63.301</ele>
        <time>2019-11-15T10:48:18.001Z</time>
      </trkpt>
      <trkpt lat="49.55105" lon="0.13112">
        <ele>67.988</ele>
        <time>2019-11-15T10:48:51.001Z</time>
      </trkpt>
      <trkpt lat="49.55165" lon="0.1317">
        <ele>76.292</ele>
        <time>2019-11-15T10:49:27.001Z</time>
      </trkpt>
      <trkpt lat="49.55209" lon="0.13245">
        <ele>79.068</ele>
        <time>2019-11-15T10:49:57.001Z</time>
      </trkpt>
      <trkpt lat="49.55278" lon="0.13306">
        <ele>80.218</ele>
        <time>2019-11-15T10:50:30.001Z</time>
      </trkpt>
      <trkpt lat="49.55372" lon="0.1336">
        <ele>80.028</ele>
        <time>2019-11-15T10:51:03.001Z</time>
      </trkpt>
      <trkpt lat="49.55459" lon="0.1342">
        <ele>80.555</ele>
        <time>2019-11-15T10:51:33.001Z</time>
      </trkpt>
      <trkpt lat="49.55557" lon="0.13404">
        <ele>78.377</ele>
        <time>2019-11-15T10:52:06.001Z</time>
      </trkpt>
      <trkpt lat="49.55642" lon="0.13363">
        <ele>80.873</ele>
        <time>2019-11-15T10:52:39.001Z</time>
      </trkpt>
      <trkpt lat="49.55728" lon="0.13373">
        <ele>82.774</ele>
        <time>2019-11-15T10:53:09.001Z</time>
      </trkpt>
      <trkpt lat="49.55784" lon="0.13485">
        <ele>84.985</ele>
        <time>2019-11-15T10:53:42.001Z</time>
      </trkpt>
      <trkpt lat="49.55815" lon="0.13634">
        <ele>81.578</ele>
        <time>2019-11-15T10:54:15.001Z</time>
      </trkpt>
      <trkpt lat="49.55846" lon="0.13769">
        <ele>83.662</ele>
        <time>2019-11-15T10:54:45.001Z</time>
      </trkpt>
      <trkpt lat="49.55871" lon="0.13923">
        <ele>84.838</ele>
        <time>2019-11-15T10:55:18.001Z</time>
      </trkpt>
      <trkpt lat="49.55885" lon="0.14072">
        <ele>85.874</ele>
        <time>2019-11-15T10:55:51.001Z</time>
      </trkpt>
      <trkpt lat="49.5592" lon="0.14205">
        <ele>87.781</ele>
        <time>2019-11-15T10:56:21.001Z</time>
      </trkpt>
      <trkpt lat="49.56021" lon="0.14343">
        <ele>85.414</ele>
        <time>2019-11-15T10:56:54.001Z</time>
      </trkpt>
      <trkpt lat="49.56129" lon="0.14517">
        <ele>84.717</ele>
        <time>2019-11-15T10:57:27.001Z</time>
      </trkpt>
      <trkpt lat="49.5622" lon="0.14723">
        <ele>85.818</ele>
        <time>2019-11-15T10:57:57.001Z</time>
      </trkpt>
      <trkpt lat="49.56253" lon="0.14864">
        <ele>82.708</ele>
        <time>2019-11-15T10:58:30.001Z</time>
      </trkpt>
      <trkpt lat="49.56478" lon="0.14808">
        <ele>86.79</ele>
        <time>2019-11-15T10:59:03.001Z</time>
      </trkpt>
      <trkpt lat="49.56609" lon="0.14767">
        <ele>83.613</ele>
        <time>2019-11-15T10:59:33.001Z</time>
      </trkpt>
      <trkpt lat="49.56678" lon="0.14772">
        <ele>84.928</ele>
        <time>2019-11-15T11:00:06.001Z</time>
      </trkpt>
      <trkpt lat="49.56759" lon="0.14778">
        <ele>84.954</ele>
        <time>2019-11-15T11:00:39.001Z</time>
      </trkpt>
      <trkpt lat="49.56855" lon="0.14793">
        <ele>83.872</ele>
        <time>2019-11-15T11:01:09.001Z</time>
      </trkpt>
      <trkpt lat="49.56949" lon="0.14842">
        <ele>88.612</ele>
        <time>2019-11-15T11:01:42.001Z</time>
      </trkpt>
      <trkpt lat="49.57019" lon="0.14945">
        <ele>92.072</ele>
        <time>2019-11-15T11:02:15.001Z</time>
      </trkpt>
      <trkpt lat="49.57056" lon="0.15088">
        <ele>86.777</ele>
        <time>2019-11-15T11:02:45.001Z</time>
      </trkpt>
      <trkpt lat="49.57112" lon="0.15234">
        <ele>87.305</ele>
        <time>2019-11-15T11:03:18.001Z</time>
      </trkpt>
      <trkpt lat="49.57188" lon="0.15413">
        <ele>86.388</ele>
        <time>2019-11-15T11:03:51.001Z</time>
      </trkpt>
      <trkpt lat="49.57284" lon="0.15537">
        <ele>84.228</ele>
        <time>2019-11-15T11:04:21.001Z</time>
      </trkpt>
      <trkpt lat="49.57397" lon="0.15608">
        <ele>85.284</ele>
        <time>2019-11-15T11:04:54.001Z</time>
      </trkpt>
      <trkpt lat="49.57485" lon="0.15696">
        <ele>86.431</ele>
        <time>2019-11-15T11:05:27.001Z</time>
      </trkpt>
      <trkpt lat="49.57552" lon="0.15777">
        <ele>89.649</ele>
        <time>2019-11-15T11:05:57.001Z</time>
      </trkpt>
      <trkpt lat="49.57622" lon="0.15873">
        <ele>91.1</ele>
        <time>2019-11-15T11:06:30.001Z</time>
      </trkpt>
      <trkpt lat="49.57688" lon="0.15966">
        <ele>92.301</ele>
        <time>2019-11-15T11:07:03.001Z</time>
      </trkpt>
      <trkpt lat="49.5775" lon="0.16041">
        <ele>95.427</ele>
        <time>2019-11-15T11:07:33.001Z</time>
      </trkpt>
      <trkpt lat="49.57808" lon="0.16117">
        <ele>100.567</ele>
        <time>2019-11-15T11:08:06.001Z</time>
      </trkpt>
      <trkpt lat="49.57876" lon="0.1618">
        <ele>102.396</ele>
        <time>2019-11-15T11:08:39.001Z</time>
      </trkpt>
      <trkpt lat="49.57958" lon="0.16251">
        <ele>102.066</ele>
        <time>2019-11-15T11:09:09.001Z</time>
      </trkpt>
      <trkpt lat="49.58047" lon="0.16359">
        <ele>101.14</ele>
        <time>2019-11-15T11:09:42.001Z</time>
      </trkpt>
      <trkpt lat="49.58126" lon="0.1646">
        <ele>102.085</ele>
        <time>2019-11-15T11:10:15.001Z</time>
      </trkpt>
      <trkpt lat="49.58215" lon="0.16575">
        <ele>101.894</ele>
        <time>2019-11-15T11:10:48.001Z</time>
      </trkpt>
      <trkpt lat="49.583" lon="0.167">
        <ele>101.397</ele>
        <time>2019-11-15T11:11:18.001Z</time>
      </trkpt>
      <trkpt lat="49.58393" lon="0.16857">
        <ele>99.826</ele>
        <time>2019-11-15T11:11:51.001Z</time>
      </trkpt>
      <trkpt lat="49.5847" lon="0.17028">
        <ele>101.379</ele>
        <time>2019-11-15T11:12:24.001Z</time>
      </trkpt>
      <trkpt lat="49.58532" lon="0.17172">
        <ele>102.481</ele>
        <time>2019-11-15T11:12:54.001Z</time>
      </trkpt>
      <trkpt lat="49.58614" lon="0.17332">
        <ele>104.03</ele>
        <time>2019-11-15T11:13:27.001Z</time>
      </trkpt>
      <trkpt lat="49.58696" lon="0.17488">
        <ele>102.213</ele>
        <time>2019-11-15T11:14:00Z</time>
      </trkpt>
      <trkpt lat="49.58759" lon="0.17598">
        <ele>100.708</ele>
        <time>2019-11-15T11:14:30.001Z</time>
      </trkpt>
      <trkpt lat="49.58911" lon="0.17557">
        <ele>105.505</ele>
        <time>2019-11-15T11:15:03.001Z</time>
      </trkpt>
      <trkpt lat="49.59081" lon="0.17488">
        <ele>105.833</ele>
        <time>2019-11-15T11:15:36.001Z</time>
      </trkpt>
      <trkpt lat="49.59232" lon="0.17515">
        <ele>98.357</ele>
        <time>2019-11-15T11:16:06.001Z</time>
      </trkpt>
      <trkpt lat="49.59375" lon="0.17622">
        <ele>94.722</ele>
        <time>2019-11-15T11:16:39.001Z</time>
      </trkpt>
      <trkpt lat="49.59464" lon="0.17668">
        <ele>95.419</ele>
        <time>2019-11-15T11:17:12.001Z</time>
      </trkpt>
      <trkpt lat="49.59558" lon="0.17631">
        <ele>100.773</ele>
        <time>2019-11-15T11:17:42.001Z</time>
      </trkpt>
      <trkpt lat="49.59718" lon="0.17599">
        <ele>100.395</ele>
        <time>2019-11-15T11:18:15.001Z</time>
      </trkpt>
      <trkpt lat="49.59787" lon="0.17586">
        <ele>96.037</ele>
        <time>2019-11-15T11:19:12.001Z</time>
      </trkpt>
      <trkpt lat="49.59808" lon="0.17682">
        <ele>98.929</ele>
        <time>2019-11-15T11:19:45.001Z</time>
      </trkpt>
      <trkpt lat="49.59899" lon="0.17857">
        <ele>90.036</ele>
        <time>2019-11-15T11:20:18.001Z</time>
      </trkpt>
      <trkpt lat="49.60098" lon="0.17995">
        <ele>81.324</ele>
        <time>2019-11-15T11:20:51.001Z</time>
      </trkpt>
      <trkpt lat="49.60221" lon="0.18164">
        <ele>78.865</ele>
        <time>2019-11-15T11:21:21.001Z</time>
      </trkpt>
      <trkpt lat="49.60318" lon="0.18294">
        <ele>71.972</ele>
        <time>2019-11-15T11:21:54.001Z</time>
      </trkpt>
      <trkpt lat="49.60492" lon="0.18384">
        <ele>68.736</ele>
        <time>2019-11-15T11:22:30.001Z</time>
      </trkpt>
      <trkpt lat="49.60617" lon="0.18413">
        <ele>63.833</ele>
        <time>2019-11-15T11:23:00Z</time>
      </trkpt>
      <trkpt lat="49.60666" lon="0.1843">
        <ele>68.532</ele>
        <time>2019-11-15T11:23:39.001Z</time>
      </trkpt>
      <trkpt lat="49.60714" lon="0.18431">
        <ele>75.505</ele>
        <time>2019-11-15T11:24:30.001Z</time>
      </trkpt>
      <trkpt lat="49.60775" lon="0.1845">
        <ele>79.747</ele>
        <time>2019-11-15T11:25:00Z</time>
      </trkpt>
      <trkpt lat="49.60838" lon="0.18486">
        <ele>80.911</ele>
        <time>2019-11-15T11:25:33.001Z</time>
      </trkpt>
      <trkpt lat="49.6091" lon="0.18535">
        <ele>83.674</ele>
        <time>2019-11-15T11:26:06.001Z</time>
      </trkpt>
      <trkpt lat="49.60975" lon="0.18577">
        <ele>86.262</ele>
        <time>2019-11-15T11:26:36.001Z</time>
      </trkpt>
      <trkpt lat="49.61058" lon="0.18627">
        <ele>88.562</ele>
        <time>2019-11-15T11:27:09.001Z</time>
      </trkpt>
      <trkpt lat="49.61152" lon="0.18632">
        <ele>93.254</ele>
        <time>2019-11-15T11:27:42.001Z</time>
      </trkpt>
      <trkpt lat="49.61244" lon="0.1861">
        <ele>93.662</ele>
        <time>2019-11-15T11:28:12.001Z</time>
      </trkpt>
      <trkpt lat="49.6135" lon="0.18592">
        <ele>93.793</ele>
        <time>2019-11-15T11:28:45.001Z</time>
      </trkpt>
      <trkpt lat="49.61399" lon="0.18868">
        <ele>85.396</ele>
        <time>2019-11-15T11:29:18.001Z</time>
      </trkpt>
      <trkpt lat="49.61405" lon="0.19013">
        <ele>85.24</ele>
        <time>2019-11-15T11:29:48.001Z</time>
      </trkpt>
      <trkpt lat="49.61459" lon="0.19106">
        <ele>89.652</ele>
        <time>2019-11-15T11:30:21.001Z</time>
      </trkpt>
      <trkpt lat="49.61526" lon="0.1921">
        <ele>91.36</ele>
        <time>2019-11-15T11:30:54.001Z</time>
      </trkpt>
      <trkpt lat="49.61606" lon="0.19285">
        <ele>87.405</ele>
        <time>2019-11-15T11:31:24.001Z</time>
      </trkpt>
      <trkpt lat="49.61661" lon="0.19387">
        <ele>90.919</ele>
        <time>2019-11-15T11:31:57.001Z</time>
      </trkpt>
      <trkpt lat="49.61728" lon="0.19474">
        <ele>94.498</ele>
        <time>2019-11-15T11:32:30.001Z</time>
      </trkpt>
      <trkpt lat="49.61792" lon="0.19561">
        <ele>97.011</ele>
        <time>2019-11-15T11:33:00Z</time>
      </trkpt>
      <trkpt lat="49.61858" lon="0.19655">
        <ele>95.741</ele>
        <time>2019-11-15T11:33:33.001Z</time>
      </trkpt>
      <trkpt lat="49.61911" lon="0.19732">
        <ele>101.77</ele>
        <time>2019-11-15T11:34:06.001Z</time>
      </trkpt>
      <trkpt lat="49.61938" lon="0.19836">
        <ele>100.535</ele>
        <time>2019-11-15T11:34:36.001Z</time>
      </trkpt>
      <trkpt lat="49.62018" lon="0.1985">
        <ele>102.031</ele>
        <time>2019-11-15T11:35:09.001Z</time>
      </trkpt>
      <trkpt lat="49.62115" lon="0.19802">
        <ele>105.615</ele>
        <time>2019-11-15T11:35:42.001Z</time>
      </trkpt>
      <trkpt lat="49.62206" lon="0.19757">
        <ele>103.506</ele>
        <time>2019-11-15T11:36:12.001Z</time>
      </trkpt>
      <trkpt lat="49.62296" lon="0.19716">
        <ele>105.108</ele>
        <time>2019-11-15T11:36:45.001Z</time>
      </trkpt>
      <trkpt lat="49.62398" lon="0.19678">
        <ele>104.206</ele>
        <time>2019-11-15T11:37:18.001Z</time>
      </trkpt>
      <trkpt lat="49.62485" lon="0.19605">
        <ele>105.208</ele>
        <time>2019-11-15T11:37:48.001Z</time>
      </trkpt>
      <trkpt lat="49.62633" lon="0.19566">
        <ele>102.522</ele>
        <time>2019-11-15T11:38:21.001Z</time>
      </trkpt>
      <trkpt lat="49.62743" lon="0.19511">
        <ele>104.287</ele>
        <time>2019-11-15T11:38:54.001Z</time>
      </trkpt>
      <trkpt lat="49.62839" lon="0.19457">
        <ele>106.493</ele>
        <time>2019-11-15T11:39:24.001Z</time>
      </trkpt>
      <trkpt lat="49.62923" lon="0.19401">
        <ele>104.45</ele>
        <time>2019-11-15T11:39:57.001Z</time>
      </trkpt>
      <trkpt lat="49.62986" lon="0.19383">
        <ele>113.083</ele>
        <time>2019-11-15T11:40:30.001Z</time>
      </trkpt>
      <trkpt lat="49.63061" lon="0.19389">
        <ele>110.245</ele>
        <time>2019-11-15T11:41:00Z</time>
      </trkpt>
      <trkpt lat="49.6313" lon="0.19422">
        <ele>115.505</ele>
        <time>2019-11-15T11:41:33.001Z</time>
      </trkpt>
      <trkpt lat="49.63206" lon="0.19431">
        <ele>116.326</ele>
        <time>2019-11-15T11:42:06.001Z</time>
      </trkpt>
      <trkpt lat="49.63284" lon="0.19379">
        <ele>116.014</ele>
        <time>2019-11-15T11:42:36.001Z</time>
      </trkpt>
      <trkpt lat="49.63354" lon="0.19283">
        <ele>116.029</ele>
        <time>2019-11-15T11:43:09.001Z</time>
      </trkpt>
      <trkpt lat="49.63409" lon="0.19204">
        <ele>120.026</ele>
        <time>2019-11-15T11:43:42.001Z</time>
      </trkpt>
      <trkpt lat="49.63461" lon="0.19132">
        <ele>124.061</ele>
        <time>2019-11-15T11:44:12.001Z</time>
      </trkpt>
      <trkpt lat="49.63527" lon="0.1904">
        <ele>126.818</ele>
        <time>2019-11-15T11:44:45.001Z</time>
      </trkpt>
      <trkpt lat="49.63546" lon="0.19148">
        <ele>126.946</ele>
        <time>2019-11-15T11:45:18.001Z</time>
      </trkpt>
      <trkpt lat="49.63556" lon="0.19353">
        <ele>122.273</ele>
        <time>2019-11-15T11:45:48.001Z</time>
      </trkpt>
      <trkpt lat="49.63655" lon="0.1943">
        <ele>117.299</ele>
        <time>2019-11-15T11:46:21.001Z</time>
      </trkpt>
      <trkpt lat="49.63767" lon="0.19417">
        <ele>120.041</ele>
        <time>2019-11-15T11:46:54.001Z</time>
      </trkpt>
      <trkpt lat="49.63848" lon="0.19425">
        <ele>120.4</ele>
        <time>2019-11-15T11:47:24.001Z</time>
      </trkpt>
      <trkpt lat="49.63932" lon="0.19427">
        <ele>124.487</ele>
        <time>2019-11-15T11:47:57.001Z</time>
      </trkpt>
      <trkpt lat="49.64017" lon="0.1945">
        <ele>125.893</ele>
        <time>2019-11-15T11:48:30.001Z</time>
      </trkpt>
      <trkpt lat="49.64087" lon="0.19473">
        <ele>127.905</ele>
        <time>2019-11-15T11:49:00Z</time>
      </trkpt>
      <trkpt lat="49.64195" lon="0.19493">
        <ele>127.102</ele>
        <time>2019-11-15T11:49:33.001Z</time>
      </trkpt>
      <trkpt lat="49.6431" lon="0.19497">
        <ele>125.221</ele>
        <time>2019-11-15T11:50:06.001Z</time>
      </trkpt>
      <trkpt lat="49.64397" lon="0.19527">
        <ele>133.659</ele>
        <time>2019-11-15T11:50:36.001Z</time>
      </trkpt>
      <trkpt lat="49.64483" lon="0.19573">
        <ele>138.427</ele>
        <time>2019-11-15T11:51:09.001Z</time>
      </trkpt>
      <trkpt lat="49.64549" lon="0.19649">
        <ele>132.258</ele>
        <time>2019-11-15T11:51:42.001Z</time>
      </trkpt>
      <trkpt lat="49.64608" lon="0.19735">
        <ele>132.711</ele>
        <time>2019-11-15T11:52:12.001Z</time>
      </trkpt>
      <trkpt lat="49.647" lon="0.19864">
        <ele>133.249</ele>
        <time>2019-11-15T11:52:45.001Z</time>
      </trkpt>
      <trkpt lat="49.64825" lon="0.20011">
        <ele>130.919</ele>
        <time>2019-11-15T11:53:18.001Z</time>
      </trkpt>
      <trkpt lat="49.64922" lon="0.20125">
        <ele>126.934</ele>
        <time>2019-11-15T11:53:48.001Z</time>
      </trkpt>
      <trkpt lat="49.65042" lon="0.20279">
        <ele>124.674</ele>
        <time>2019-11-15T11:54:21.001Z</time>
      </trkpt>
      <trkpt lat="49.65195" lon="0.20379">
        <ele>124.118</ele>
        <time>2019-11-15T11:54:54.001Z</time>
      </trkpt>
      <trkpt lat="49.65373" lon="0.20402">
        <ele>126.011</ele>
        <time>2019-11-15T11:55:24.001Z</time>
      </trkpt>
      <trkpt lat="49.65454" lon="0.20465">
        <ele>122.775</ele>
        <time>2019-11-15T11:55:57.001Z</time>
      </trkpt>
      <trkpt lat="49.65539" lon="0.20612">
        <ele>123.95</ele>
        <time>2019-11-15T11:56:30.001Z</time>
      </trkpt>
      <trkpt lat="49.65651" lon="0.20804">
        <ele>117.71</ele>
        <time>2019-11-15T11:57:00Z</time>
      </trkpt>
      <trkpt lat="49.6575" lon="0.20938">
        <ele>114.796</ele>
        <time>2019-11-15T11:57:33.001Z</time>
      </trkpt>
      <trkpt lat="49.6581" lon="0.2096">
        <ele>118.511</ele>
        <time>2019-11-15T11:58:06.001Z</time>
      </trkpt>
      <trkpt lat="49.65871" lon="0.21098">
        <ele>116.394</ele>
        <time>2019-11-15T11:58:36.001Z</time>
      </trkpt>
      <trkpt lat="49.66045" lon="0.21328">
        <ele>111.331</ele>
        <time>2019-11-15T11:59:09.001Z</time>
      </trkpt>
      <trkpt lat="49.66244" lon="0.21551">
        <ele>102.589</ele>
        <time>2019-11-15T11:59:42.001Z</time>
      </trkpt>
      <trkpt lat="49.66305" lon="0.21605">
        <ele>105.061</ele>
        <time>2019-11-15T12:00:12.001Z</time>
      </trkpt>
      <trkpt lat="49.66371" lon="0.21663">
        <ele>110.04</ele>
        <time>2019-11-15T12:00:45.001Z</time>
      </trkpt>
      <trkpt lat="49.6654" lon="0.21803">
        <ele>103.614</ele>
        <time>2019-11-15T12:01:18.001Z</time>
      </trkpt>
      <trkpt lat="49.66698" lon="0.21963">
        <ele>91.935</ele>
        <time>2019-11-15T12:01:48.001Z</time>
      </trkpt>
      <trkpt lat="49.66859" lon="0.22033">
        <ele>89.152</ele>
        <time>2019-11-15T12:02:21.001Z</time>
      </trkpt>
      <trkpt lat="49.6706" lon="0.22149">
        <ele>69.803</ele>
        <time>2019-11-15T12:02:54.001Z</time>
      </trkpt>
      <trkpt lat="49.67161" lon="0.22296">
        <ele>49.377</ele>
        <time>2019-11-15T12:03:24.001Z</time>
      </trkpt>
      <trkpt lat="49.67269" lon="0.22265">
        <ele>36.154</ele>
        <time>2019-11-15T12:03:57.001Z</time>
      </trkpt>
      <trkpt lat="49.67321" lon="0.22114">
        <ele>33.367</ele>
        <time>2019-11-15T12:04:30.001Z</time>
      </trkpt>
      <trkpt lat="49.67407" lon="0.2205">
        <ele>30.25</ele>
        <time>2019-11-15T12:05:00Z</time>
      </trkpt>
      <trkpt lat="49.67498" lon="0.22088">
        <ele>34.596</ele>
        <time>2019-11-15T12:05:36.001Z</time>
      </trkpt>
      <trkpt lat="49.6757" lon="0.22174">
        <ele>39.838</ele>
        <time>2019-11-15T12:06:18.001Z</time>
      </trkpt>
      <trkpt lat="49.67613" lon="0.22262">
        <ele>31.022</ele>
        <time>2019-11-15T12:06:48.001Z</time>
      </trkpt>
      <trkpt lat="49.67652" lon="0.22355">
        <ele>30.1</ele>
        <time>2019-11-15T12:07:21.001Z</time>
      </trkpt>
      <trkpt lat="49.67724" lon="0.22446">
        <ele>28.491</ele>
        <time>2019-11-15T12:07:54.001Z</time>
      </trkpt>
      <trkpt lat="49.67789" lon="0.22528">
        <ele>28.548</ele>
        <time>2019-11-15T12:08:24.001Z</time>
      </trkpt>
      <trkpt lat="49.67848" lon="0.22599">
        <ele>27.129</ele>
        <time>2019-11-15T12:08:57.001Z</time>
      </trkpt>
      <trkpt lat="49.67901" lon="0.22653">
        <ele>26.852</ele>
        <time>2019-11-15T12:09:30.001Z</time>
      </trkpt>
      <trkpt lat="49.67958" lon="0.22737">
        <ele>28.387</ele>
        <time>2019-11-15T12:10:00Z</time>
      </trkpt>
      <trkpt lat="49.68018" lon="0.22788">
        <ele>24.647</ele>
        <time>2019-11-15T12:10:36.001Z</time>
      </trkpt>
      <trkpt lat="49.68086" lon="0.22773">
        <ele>26.55</ele>
        <time>2019-11-15T12:11:09.001Z</time>
      </trkpt>
      <trkpt lat="49.68151" lon="0.22756">
        <ele>25.592</ele>
        <time>2019-11-15T12:11:39.001Z</time>
      </trkpt>
      <trkpt lat="49.68235" lon="0.22739">
        <ele>22.531</ele>
        <time>2019-11-15T12:12:12.001Z</time>
      </trkpt>
      <trkpt lat="49.6831" lon="0.22717">
        <ele>24.066</ele>
        <time>2019-11-15T12:12:45.001Z</time>
      </trkpt>
      <trkpt lat="49.68375" lon="0.22715">
        <ele>27.89</ele>
        <time>2019-11-15T12:13:15.001Z</time>
      </trkpt>
      <trkpt lat="49.68456" lon="0.22706">
        <ele>24.789</ele>
        <time>2019-11-15T12:13:48.001Z</time>
      </trkpt>
      <trkpt lat="49.6862" lon="0.22639">
        <ele>18.986</ele>
        <time>2019-11-15T12:14:21.001Z</time>
      </trkpt>
      <trkpt lat="49.68755" lon="0.22575">
        <ele>17.058</ele>
        <time>2019-11-15T12:14:51.001Z</time>
      </trkpt>
      <trkpt lat="49.68838" lon="0.22349">
        <ele>16.632</ele>
        <time>2019-11-15T12:15:24.001Z</time>
      </trkpt>
      <trkpt lat="49.6893" lon="0.22138">
        <ele>11.812</ele>
        <time>2019-11-15T12:15:57.001Z</time>
      </trkpt>
      <trkpt lat="49.69089" lon="0.222">
        <ele>12.152</ele>
        <time>2019-11-15T12:16:27.001Z</time>
      </trkpt>
      <trkpt lat="49.69259" lon="0.22255">
        <ele>15.067</ele>
        <time>2019-11-15T12:17:00Z</time>
      </trkpt>
      <trkpt lat="49.69416" lon="0.22217">
        <ele>15.352</ele>
        <time>2019-11-15T12:17:33.001Z</time>
      </trkpt>
      <trkpt lat="49.6955" lon="0.22081">
        <ele>7.956</ele>
        <time>2019-11-15T12:18:03.001Z</time>
      </trkpt>
      <trkpt lat="49.69703" lon="0.2194">
        <ele>10.133</ele>
        <time>2019-11-15T12:18:36.001Z</time>
      </trkpt>
      <trkpt lat="49.69855" lon="0.21758">
        <ele>11.392</ele>
        <time>2019-11-15T12:19:09.001Z</time>
      </trkpt>
      <trkpt lat="49.69987" lon="0.21614">
        <ele>6.408</ele>
        <time>2019-11-15T12:19:39.001Z</time>
      </trkpt>
      <trkpt lat="49.70133" lon="0.21423">
        <ele>7.7</ele>
        <time>2019-11-15T12:20:12.001Z</time>
      </trkpt>
      <trkpt lat="49.70273" lon="0.21222">
        <ele>9.011</ele>
        <time>2019-11-15T12:20:45.001Z</time>
      </trkpt>
      <trkpt lat="49.70401" lon="0.21035">
        <ele>7.821</ele>
        <time>2019-11-15T12:21:15.001Z</time>
      </trkpt>
      <trkpt lat="49.70531" lon="0.20794">
        <ele>4.519</ele>
        <time>2019-11-15T12:21:48.001Z</time>
      </trkpt>
      <trkpt lat="49.70652" lon="0.20611">
        <ele>8.054</ele>
        <time>2019-11-15T12:22:21.001Z</time>
      </trkpt>
      <trkpt lat="49.70723" lon="0.20533">
        <ele>17.983</ele>
        <time>2019-11-15T12:22:51.001Z</time>
      </trkpt>
      <trkpt lat="49.70786" lon="0.20439">
        <ele>18.962</ele>
        <time>2019-11-15T12:23:24.001Z</time>
      </trkpt>
      <trkpt lat="49.70787" lon="0.20435">
        <ele>19.046</ele>
        <time>2019-11-15T12:25:48.001Z</time>
      </trkpt>
      <trkpt lat="49.7079" lon="0.20423">
        <ele>14.561</ele>
        <time>2019-11-15T13:07:09.001Z</time>
      </trkpt>
      <trkpt lat="49.70774" lon="0.20465">
        <ele>13.551</ele>
        <time>2019-11-15T13:10:36.001Z</time>
      </trkpt>
      <trkpt lat="49.70719" lon="0.20597">
        <ele>21.149</ele>
        <time>2019-11-15T13:11:09.001Z</time>
      </trkpt>
      <trkpt lat="49.70764" lon="0.20729">
        <ele>19.861</ele>
        <time>2019-11-15T13:11:39.001Z</time>
      </trkpt>
      <trkpt lat="49.70729" lon="0.20861">
        <ele>20.843</ele>
        <time>2019-11-15T13:12:12.001Z</time>
      </trkpt>
      <trkpt lat="49.70796" lon="0.21043">
        <ele>23.398</ele>
        <time>2019-11-15T13:12:45.001Z</time>
      </trkpt>
      <trkpt lat="49.7083" lon="0.21165">
        <ele>20.346</ele>
        <time>2019-11-15T13:13:15.001Z</time>
      </trkpt>
      <trkpt lat="49.70862" lon="0.21294">
        <ele>22.593</ele>
        <time>2019-11-15T13:13:48.001Z</time>
      </trkpt>
      <trkpt lat="49.70899" lon="0.21401">
        <ele>24.94</ele>
        <time>2019-11-15T13:14:21.001Z</time>
      </trkpt>
      <trkpt lat="49.70928" lon="0.215">
        <ele>25.258</ele>
        <time>2019-11-15T13:14:51.001Z</time>
      </trkpt>
      <trkpt lat="49.70957" lon="0.21609">
        <ele>30.27</ele>
        <time>2019-11-15T13:15:24.001Z</time>
      </trkpt>
      <trkpt lat="49.70963" lon="0.21731">
        <ele>31.751</ele>
        <time>2019-11-15T13:15:57.001Z</time>
      </trkpt>
      <trkpt lat="49.70971" lon="0.21842">
        <ele>35.87</ele>
        <time>2019-11-15T13:16:27.001Z</time>
      </trkpt>
      <trkpt lat="49.7099" lon="0.21949">
        <ele>40.31</ele>
        <time>2019-11-15T13:17:00Z</time>
      </trkpt>
      <trkpt lat="49.71019" lon="0.22058">
        <ele>42.85</ele>
        <time>2019-11-15T13:17:33.001Z</time>
      </trkpt>
      <trkpt lat="49.71052" lon="0.22147">
        <ele>45.822</ele>
        <time>2019-11-15T13:18:03.001Z</time>
      </trkpt>
      <trkpt lat="49.71088" lon="0.22247">
        <ele>49.243</ele>
        <time>2019-11-15T13:18:36.001Z</time>
      </trkpt>
      <trkpt lat="49.71129" lon="0.22353">
        <ele>51.149</ele>
        <time>2019-11-15T13:19:09.001Z</time>
      </trkpt>
      <trkpt lat="49.7119" lon="0.22417">
        <ele>49.55</ele>
        <time>2019-11-15T13:19:39.001Z</time>
      </trkpt>
      <trkpt lat="49.71192" lon="0.22497">
        <ele>50.17</ele>
        <time>2019-11-15T13:20:12.001Z</time>
      </trkpt>
      <trkpt lat="49.71187" lon="0.22605">
        <ele>54.353</ele>
        <time>2019-11-15T13:20:45.001Z</time>
      </trkpt>
      <trkpt lat="49.71188" lon="0.22706">
        <ele>55.113</ele>
        <time>2019-11-15T13:21:15.001Z</time>
      </trkpt>
      <trkpt lat="49.7119" lon="0.22813">
        <ele>59.273</ele>
        <time>2019-11-15T13:21:48.001Z</time>
      </trkpt>
      <trkpt lat="49.71231" lon="0.22896">
        <ele>63.086</ele>
        <time>2019-11-15T13:22:21.001Z</time>
      </trkpt>
      <trkpt lat="49.71281" lon="0.22955">
        <ele>63.12</ele>
        <time>2019-11-15T13:22:51.001Z</time>
      </trkpt>
      <trkpt lat="49.71272" lon="0.23043">
        <ele>68.083</ele>
        <time>2019-11-15T13:23:24.001Z</time>
      </trkpt>
      <trkpt lat="49.71197" lon="0.23059">
        <ele>64.593</ele>
        <time>2019-11-15T13:23:57.001Z</time>
      </trkpt>
      <trkpt lat="49.71174" lon="0.23159">
        <ele>72.444</ele>
        <time>2019-11-15T13:24:27.001Z</time>
      </trkpt>
      <trkpt lat="49.71181" lon="0.23281">
        <ele>71.904</ele>
        <time>2019-11-15T13:25:00Z</time>
      </trkpt>
      <trkpt lat="49.71209" lon="0.23389">
        <ele>75.566</ele>
        <time>2019-11-15T13:25:33.001Z</time>
      </trkpt>
      <trkpt lat="49.71237" lon="0.23482">
        <ele>80.808</ele>
        <time>2019-11-15T13:26:03.001Z</time>
      </trkpt>
      <trkpt lat="49.71257" lon="0.23591">
        <ele>86.925</ele>
        <time>2019-11-15T13:26:36.001Z</time>
      </trkpt>
      <trkpt lat="49.71268" lon="0.23699">
        <ele>86.9</ele>
        <time>2019-11-15T13:27:09.001Z</time>
      </trkpt>
      <trkpt lat="49.71289" lon="0.23793">
        <ele>84.177</ele>
        <time>2019-11-15T13:27:39.001Z</time>
      </trkpt>
      <trkpt lat="49.71356" lon="0.23816">
        <ele>86.749</ele>
        <time>2019-11-15T13:28:12.001Z</time>
      </trkpt>
      <trkpt lat="49.71425" lon="0.23839">
        <ele>89.033</ele>
        <time>2019-11-15T13:28:45.001Z</time>
      </trkpt>
      <trkpt lat="49.71461" lon="0.23921">
        <ele>93.591</ele>
        <time>2019-11-15T13:29:15.001Z</time>
      </trkpt>
      <trkpt lat="49.71502" lon="0.24034">
        <ele>96.684</ele>
        <time>2019-11-15T13:29:48.001Z</time>
      </trkpt>
      <trkpt lat="49.71534" lon="0.24161">
        <ele>91.099</ele>
        <time>2019-11-15T13:30:21.001Z</time>
      </trkpt>
      <trkpt lat="49.71554" lon="0.24278">
        <ele>94.465</ele>
        <time>2019-11-15T13:30:51.001Z</time>
      </trkpt>
      <trkpt lat="49.71565" lon="0.24414">
        <ele>104.358</ele>
        <time>2019-11-15T13:31:24.001Z</time>
      </trkpt>
      <trkpt lat="49.71583" lon="0.24558">
        <ele>106.834</ele>
        <time>2019-11-15T13:31:57.001Z</time>
      </trkpt>
      <trkpt lat="49.71626" lon="0.24679">
        <ele>115.588</ele>
        <time>2019-11-15T13:32:27.001Z</time>
      </trkpt>
      <trkpt lat="49.71662" lon="0.24861">
        <ele>108.086</ele>
        <time>2019-11-15T13:33:00Z</time>
      </trkpt>
      <trkpt lat="49.71699" lon="0.25028">
        <ele>107.368</ele>
        <time>2019-11-15T13:33:33.001Z</time>
      </trkpt>
      <trkpt lat="49.71738" lon="0.25183">
        <ele>108.169</ele>
        <time>2019-11-15T13:34:03.001Z</time>
      </trkpt>
      <trkpt lat="49.71741" lon="0.2538">
        <ele>103.317</ele>
        <time>2019-11-15T13:34:36.001Z</time>
      </trkpt>
      <trkpt lat="49.71821" lon="0.25533">
        <ele>94.235</ele>
        <time>2019-11-15T13:35:09.001Z</time>
      </trkpt>
      <trkpt lat="49.7183" lon="0.25719">
        <ele>95.494</ele>
        <time>2019-11-15T13:35:39.001Z</time>
      </trkpt>
      <trkpt lat="49.71837" lon="0.25923">
        <ele>96.282</ele>
        <time>2019-11-15T13:36:12.001Z</time>
      </trkpt>
      <trkpt lat="49.71836" lon="0.26156">
        <ele>96.816</ele>
        <time>2019-11-15T13:36:45.001Z</time>
      </trkpt>
      <trkpt lat="49.71854" lon="0.26347">
        <ele>97.895</ele>
        <time>2019-11-15T13:37:15.001Z</time>
      </trkpt>
      <trkpt lat="49.71861" lon="0.2662">
        <ele>92.386</ele>
        <time>2019-11-15T13:37:48.001Z</time>
      </trkpt>
      <trkpt lat="49.71864" lon="0.26844">
        <ele>89.986</ele>
        <time>2019-11-15T13:38:21.001Z</time>
      </trkpt>
      <trkpt lat="49.71853" lon="0.26998">
        <ele>91.864</ele>
        <time>2019-11-15T13:38:51.001Z</time>
      </trkpt>
      <trkpt lat="49.71836" lon="0.27283">
        <ele>96.811</ele>
        <time>2019-11-15T13:39:24.001Z</time>
      </trkpt>
      <trkpt lat="49.71886" lon="0.276">
        <ele>87.773</ele>
        <time>2019-11-15T13:39:57.001Z</time>
      </trkpt>
      <trkpt lat="49.71885" lon="0.27734">
        <ele>86.247</ele>
        <time>2019-11-15T13:40:27.001Z</time>
      </trkpt>
      <trkpt lat="49.71943" lon="0.27818">
        <ele>89.404</ele>
        <time>2019-11-15T13:41:00Z</time>
      </trkpt>
      <trkpt lat="49.7202" lon="0.2788">
        <ele>92.212</ele>
        <time>2019-11-15T13:41:33.001Z</time>
      </trkpt>
      <trkpt lat="49.72095" lon="0.27945">
        <ele>93.13</ele>
        <time>2019-11-15T13:42:03.001Z</time>
      </trkpt>
      <trkpt lat="49.72164" lon="0.28049">
        <ele>92</ele>
        <time>2019-11-15T13:42:36.001Z</time>
      </trkpt>
      <trkpt lat="49.72116" lon="0.28139">
        <ele>97.627</ele>
        <time>2019-11-15T13:43:09.001Z</time>
      </trkpt>
      <trkpt lat="49.72063" lon="0.28194">
        <ele>94.437</ele>
        <time>2019-11-15T13:44:24.001Z</time>
      </trkpt>
      <trkpt lat="49.7198" lon="0.28267">
        <ele>97.543</ele>
        <time>2019-11-15T13:44:54.001Z</time>
      </trkpt>
      <trkpt lat="49.71892" lon="0.2834">
        <ele>101.464</ele>
        <time>2019-11-15T13:45:27.001Z</time>
      </trkpt>
      <trkpt lat="49.71784" lon="0.28478">
        <ele>98.043</ele>
        <time>2019-11-15T13:46:00Z</time>
      </trkpt>
      <trkpt lat="49.71689" lon="0.28707">
        <ele>98.679</ele>
        <time>2019-11-15T13:46:30.001Z</time>
      </trkpt>
      <trkpt lat="49.71595" lon="0.28983">
        <ele>85.504</ele>
        <time>2019-11-15T13:47:03.001Z</time>
      </trkpt>
      <trkpt lat="49.71539" lon="0.29116">
        <ele>86.114</ele>
        <time>2019-11-15T13:47:36.001Z</time>
      </trkpt>
      <trkpt lat="49.71493" lon="0.29298">
        <ele>80.854</ele>
        <time>2019-11-15T13:48:06.001Z</time>
      </trkpt>
      <trkpt lat="49.71448" lon="0.29418">
        <ele>86.901</ele>
        <time>2019-11-15T13:48:39.001Z</time>
      </trkpt>
      <trkpt lat="49.71419" lon="0.2952">
        <ele>93.159</ele>
        <time>2019-11-15T13:49:12.001Z</time>
      </trkpt>
      <trkpt lat="49.71391" lon="0.29619">
        <ele>95.458</ele>
        <time>2019-11-15T13:49:42.001Z</time>
      </trkpt>
      <trkpt lat="49.71353" lon="0.29726">
        <ele>96.349</ele>
        <time>2019-11-15T13:50:15.001Z</time>
      </trkpt>
      <trkpt lat="49.71275" lon="0.29877">
        <ele>96.128</ele>
        <time>2019-11-15T13:50:48.001Z</time>
      </trkpt>
      <trkpt lat="49.71198" lon="0.30013">
        <ele>95.818</ele>
        <time>2019-11-15T13:51:18.001Z</time>
      </trkpt>
      <trkpt lat="49.71151" lon="0.30155">
        <ele>95.758</ele>
        <time>2019-11-15T13:51:51.001Z</time>
      </trkpt>
      <trkpt lat="49.71129" lon="0.30294">
        <ele>96.154</ele>
        <time>2019-11-15T13:52:24.001Z</time>
      </trkpt>
      <trkpt lat="49.71068" lon="0.30425">
        <ele>98.92</ele>
        <time>2019-11-15T13:52:54.001Z</time>
      </trkpt>
      <trkpt lat="49.70933" lon="0.30655">
        <ele>94.121</ele>
        <time>2019-11-15T13:53:27.001Z</time>
      </trkpt>
      <trkpt lat="49.70927" lon="0.30796">
        <ele>89.694</ele>
        <time>2019-11-15T13:54:03.001Z</time>
      </trkpt>
      <trkpt lat="49.70937" lon="0.30896">
        <ele>94.433</ele>
        <time>2019-11-15T13:54:33.001Z</time>
      </trkpt>
      <trkpt lat="49.7095" lon="0.31001">
        <ele>102.608</ele>
        <time>2019-11-15T13:55:06.001Z</time>
      </trkpt>
      <trkpt lat="49.70965" lon="0.31127">
        <ele>109.709</ele>
        <time>2019-11-15T13:55:39.001Z</time>
      </trkpt>
      <trkpt lat="49.70975" lon="0.3123">
        <ele>106.542</ele>
        <time>2019-11-15T13:56:09.001Z</time>
      </trkpt>
      <trkpt lat="49.70913" lon="0.3133">
        <ele>105.605</ele>
        <time>2019-11-15T13:56:42.001Z</time>
      </trkpt>
      <trkpt lat="49.70997" lon="0.31477">
        <ele>102.065</ele>
        <time>2019-11-15T13:57:15.001Z</time>
      </trkpt>
      <trkpt lat="49.71071" lon="0.3161">
        <ele>101.782</ele>
        <time>2019-11-15T13:57:45.001Z</time>
      </trkpt>
      <trkpt lat="49.71149" lon="0.31798">
        <ele>99.13</ele>
        <time>2019-11-15T13:58:18.001Z</time>
      </trkpt>
      <trkpt lat="49.7124" lon="0.32035">
        <ele>97.712</ele>
        <time>2019-11-15T13:58:51.001Z</time>
      </trkpt>
      <trkpt lat="49.71384" lon="0.32307">
        <ele>94.303</ele>
        <time>2019-11-15T13:59:21.001Z</time>
      </trkpt>
      <trkpt lat="49.71472" lon="0.32463">
        <ele>94.973</ele>
        <time>2019-11-15T13:59:54.001Z</time>
      </trkpt>
      <trkpt lat="49.71526" lon="0.32547">
        <ele>90.736</ele>
        <time>2019-11-15T14:00:27.001Z</time>
      </trkpt>
      <trkpt lat="49.71584" lon="0.3261">
        <ele>91.977</ele>
        <time>2019-11-15T14:00:57.001Z</time>
      </trkpt>
      <trkpt lat="49.71659" lon="0.3268">
        <ele>95.586</ele>
        <time>2019-11-15T14:01:30.001Z</time>
      </trkpt>
      <trkpt lat="49.71661" lon="0.32846">
        <ele>95.656</ele>
        <time>2019-11-15T14:02:03.001Z</time>
      </trkpt>
      <trkpt lat="49.71696" lon="0.33012">
        <ele>98.046</ele>
        <time>2019-11-15T14:02:33.001Z</time>
      </trkpt>
      <trkpt lat="49.71723" lon="0.3315">
        <ele>102.796</ele>
        <time>2019-11-15T14:03:06.001Z</time>
      </trkpt>
      <trkpt lat="49.71727" lon="0.33306">
        <ele>102.214</ele>
        <time>2019-11-15T14:03:39.001Z</time>
      </trkpt>
      <trkpt lat="49.71715" lon="0.33427">
        <ele>99.912</ele>
        <time>2019-11-15T14:04:09.001Z</time>
      </trkpt>
      <trkpt lat="49.7175" lon="0.33581">
        <ele>99.898</ele>
        <time>2019-11-15T14:04:42.001Z</time>
      </trkpt>
      <trkpt lat="49.71816" lon="0.33802">
        <ele>99.625</ele>
        <time>2019-11-15T14:05:15.001Z</time>
      </trkpt>
      <trkpt lat="49.71806" lon="0.34019">
        <ele>97.031</ele>
        <time>2019-11-15T14:05:45.001Z</time>
      </trkpt>
      <trkpt lat="49.71801" lon="0.34376">
        <ele>84.318</ele>
        <time>2019-11-15T14:06:18.001Z</time>
      </trkpt>
      <trkpt lat="49.71889" lon="0.34385">
        <ele>78.265</ele>
        <time>2019-11-15T14:06:51.001Z</time>
      </trkpt>
      <trkpt lat="49.71954" lon="0.34423">
        <ele>81.793</ele>
        <time>2019-11-15T14:07:21.001Z</time>
      </trkpt>
      <trkpt lat="49.72014" lon="0.34477">
        <ele>83.769</ele>
        <time>2019-11-15T14:07:54.001Z</time>
      </trkpt>
      <trkpt lat="49.72077" lon="0.3452">
        <ele>83.216</ele>
        <time>2019-11-15T14:08:27.001Z</time>
      </trkpt>
      <trkpt lat="49.72127" lon="0.3457">
        <ele>90.188</ele>
        <time>2019-11-15T14:08:57.001Z</time>
      </trkpt>
      <trkpt lat="49.72176" lon="0.34632">
        <ele>92.577</ele>
        <time>2019-11-15T14:09:30.001Z</time>
      </trkpt>
      <trkpt lat="49.72214" lon="0.34722">
        <ele>95.525</ele>
        <time>2019-11-15T14:10:03.001Z</time>
      </trkpt>
      <trkpt lat="49.72268" lon="0.34811">
        <ele>98.649</ele>
        <time>2019-11-15T14:10:33.001Z</time>
      </trkpt>
      <trkpt lat="49.72334" lon="0.34881">
        <ele>98.108</ele>
        <time>2019-11-15T14:11:09.001Z</time>
      </trkpt>
      <trkpt lat="49.72417" lon="0.34968">
        <ele>98.636</ele>
        <time>2019-11-15T14:11:42.001Z</time>
      </trkpt>
      <trkpt lat="49.72471" lon="0.3505">
        <ele>98.494</ele>
        <time>2019-11-15T14:12:12.001Z</time>
      </trkpt>
      <trkpt lat="49.72518" lon="0.35146">
        <ele>101.135</ele>
        <time>2019-11-15T14:12:45.001Z</time>
      </trkpt>
      <trkpt lat="49.72615" lon="0.35213">
        <ele>108.719</ele>
        <time>2019-11-15T14:13:18.001Z</time>
      </trkpt>
      <trkpt lat="49.72681" lon="0.35246">
        <ele>109.047</ele>
        <time>2019-11-15T14:13:48.001Z</time>
      </trkpt>
      <trkpt lat="49.72655" lon="0.35308">
        <ele>104.463</ele>
        <time>2019-11-15T14:14:21.001Z</time>
      </trkpt>
      <trkpt lat="49.72589" lon="0.35322">
        <ele>98.411</ele>
        <time>2019-11-15T14:14:54.001Z</time>
      </trkpt>
      <trkpt lat="49.72572" lon="0.35439">
        <ele>103.457</ele>
        <time>2019-11-15T14:15:27.001Z</time>
      </trkpt>
      <trkpt lat="49.72577" lon="0.35561">
        <ele>102.513</ele>
        <time>2019-11-15T14:16:00Z</time>
      </trkpt>
      <trkpt lat="49.72606" lon="0.35678">
        <ele>106.948</ele>
        <time>2019-11-15T14:16:33.001Z</time>
      </trkpt>
      <trkpt lat="49.72603" lon="0.35787">
        <ele>104.927</ele>
        <time>2019-11-15T14:17:03.001Z</time>
      </trkpt>
      <trkpt lat="49.72638" lon="0.35864">
        <ele>104.122</ele>
        <time>2019-11-15T14:17:39.001Z</time>
      </trkpt>
      <trkpt lat="49.72708" lon="0.3589">
        <ele>107.313</ele>
        <time>2019-11-15T14:18:15.001Z</time>
      </trkpt>
      <trkpt lat="49.72765" lon="0.35906">
        <ele>113.711</ele>
        <time>2019-11-15T14:18:51.001Z</time>
      </trkpt>
      <trkpt lat="49.72769" lon="0.35983">
        <ele>117.445</ele>
        <time>2019-11-15T14:19:30.001Z</time>
      </trkpt>
      <trkpt lat="49.72806" lon="0.36067">
        <ele>114.327</ele>
        <time>2019-11-15T14:20:09.001Z</time>
      </trkpt>
      <trkpt lat="49.7288" lon="0.36138">
        <ele>111.814</ele>
        <time>2019-11-15T14:20:39.001Z</time>
      </trkpt>
      <trkpt lat="49.7296" lon="0.36244">
        <ele>111.735</ele>
        <time>2019-11-15T14:21:12.001Z</time>
      </trkpt>
      <trkpt lat="49.73074" lon="0.36307">
        <ele>111.661</ele>
        <time>2019-11-15T14:21:45.001Z</time>
      </trkpt>
      <trkpt lat="49.73191" lon="0.36383">
        <ele>110.771</ele>
        <time>2019-11-15T14:22:15.001Z</time>
      </trkpt>
      <trkpt lat="49.7328" lon="0.36505">
        <ele>111.447</ele>
        <time>2019-11-15T14:22:48.001Z</time>
      </trkpt>
      <trkpt lat="49.73382" lon="0.36642">
        <ele>108.215</ele>
        <time>2019-11-15T14:23:21.001Z</time>
      </trkpt>
      <trkpt lat="49.73486" lon="0.3678">
        <ele>101.524</ele>
        <time>2019-11-15T14:23:51.001Z</time>
      </trkpt>
      <trkpt lat="49.73557" lon="0.36929">
        <ele>98.151</ele>
        <time>2019-11-15T14:24:24.001Z</time>
      </trkpt>
      <trkpt lat="49.73652" lon="0.36962">
        <ele>99.137</ele>
        <time>2019-11-15T14:25:00Z</time>
      </trkpt>
      <trkpt lat="49.73857" lon="0.36966">
        <ele>91.578</ele>
        <time>2019-11-15T14:25:30.001Z</time>
      </trkpt>
      <trkpt lat="49.74054" lon="0.36975">
        <ele>90.858</ele>
        <time>2019-11-15T14:26:03.001Z</time>
      </trkpt>
      <trkpt lat="49.74158" lon="0.36984">
        <ele>88.241</ele>
        <time>2019-11-15T14:26:36.001Z</time>
      </trkpt>
      <trkpt lat="49.74252" lon="0.36997">
        <ele>93.665</ele>
        <time>2019-11-15T14:27:06.001Z</time>
      </trkpt>
      <trkpt lat="49.74355" lon="0.37019">
        <ele>92.61</ele>
        <time>2019-11-15T14:27:39.001Z</time>
      </trkpt>
      <trkpt lat="49.74518" lon="0.37144">
        <ele>91.618</ele>
        <time>2019-11-15T14:28:12.001Z</time>
      </trkpt>
      <trkpt lat="49.74739" lon="0.37233">
        <ele>79.008</ele>
        <time>2019-11-15T14:28:42.001Z</time>
      </trkpt>
      <trkpt lat="49.75039" lon="0.3708">
        <ele>64.813</ele>
        <time>2019-11-15T14:29:15.001Z</time>
      </trkpt>
      <trkpt lat="49.75303" lon="0.37175">
        <ele>38.945</ele>
        <time>2019-11-15T14:29:48.001Z</time>
      </trkpt>
      <trkpt lat="49.75428" lon="0.37318">
        <ele>31.811</ele>
        <time>2019-11-15T14:30:18.001Z</time>
      </trkpt>
      <trkpt lat="49.7557" lon="0.37473">
        <ele>31.194</ele>
        <time>2019-11-15T14:30:51.001Z</time>
      </trkpt>
      <trkpt lat="49.75706" lon="0.37633">
        <ele>32.087</ele>
        <time>2019-11-15T14:31:24.001Z</time>
      </trkpt>
      <trkpt lat="49.7583" lon="0.37683">
        <ele>30.588</ele>
        <time>2019-11-15T14:31:54.001Z</time>
      </trkpt>
      <trkpt lat="49.75839" lon="0.37653">
        <ele>23.246</ele>
        <time>2019-11-15T14:32:42.001Z</time>
      </trkpt>
      <trkpt lat="49.75858" lon="0.37663">
        <ele>25.986</ele>
        <time>2019-11-15T14:39:06.001Z</time>
      </trkpt>
      <trkpt lat="49.7585" lon="0.3768">
        <ele>27.237</ele>
        <time>2019-11-15T14:40:33.001Z</time>
      </trkpt>
      <trkpt lat="49.75858" lon="0.3768">
        <ele>25.639</ele>
        <time>2019-11-15T14:41:39.001Z</time>
      </trkpt>
      <trkpt lat="49.75856" lon="0.37674">
        <ele>26.489</ele>
        <time>2019-11-15T14:42:27.001Z</time>
      </trkpt>
      <trkpt lat="49.75846" lon="0.37674">
        <ele>24.494</ele>
        <time>2019-11-15T14:43:12.001Z</time>
      </trkpt>
      <trkpt lat="49.75818" lon="0.37676">
        <ele>29.883</ele>
        <time>2019-11-15T14:53:35Z</time>
      </trkpt>
      <trkpt lat="49.7582" lon="0.37706">
        <ele>30.312</ele>
        <time>2019-11-15T14:54:44Z</time>
      </trkpt>
      <trkpt lat="49.75831" lon="0.37645">
        <ele>20.971</ele>
        <time>2019-11-15T14:56:23Z</time>
      </trkpt>
      <trkpt lat="49.75788" lon="0.3767">
        <ele>2.167</ele>
        <time>2019-11-15T15:02:33Z</time>
      </trkpt>
      <trkpt lat="49.7584" lon="0.37619">
        <ele>36.7</ele>
        <time>2019-11-15T15:03:21Z</time>
      </trkpt>
    </trkseg>
  </trk>
</gpx>